createdAt,value
2019-06-20T00:02:07.197Z,93.00
2019-06-20T00:04:38.077Z,93.10
2019-06-20T00:07:08.881Z,93.20
2019-06-20T00:09:40.226Z,93.40
2019-06-20T00:12:11.316Z,93.40
2019-06-20T00:14:43.910Z,93.50
2019-06-20T00:17:15.113Z,93.50
2019-06-20T00:19:46.223Z,93.60
2019-06-20T00:22:17.119Z,93.60
2019-06-20T00:24:48.025Z,93.60
2019-06-20T00:27:19.214Z,93.70
2019-06-20T00:29:50.448Z,93.80
2019-06-20T00:32:23.554Z,94.00
2019-06-20T00:34:54.755Z,93.90
2019-06-20T00:37:25.702Z,93.90
2019-06-20T00:39:56.806Z,93.70
2019-06-20T00:42:27.895Z,93.60
2019-06-20T00:44:59.484Z,93.60
2019-06-20T00:47:30.827Z,93.60
2019-06-20T00:50:01.978Z,93.60
2019-06-20T00:52:32.950Z,93.60
2019-06-20T00:55:04.237Z,93.60
2019-06-20T00:57:35.151Z,93.60
2019-06-20T01:00:06.971Z,93.60
2019-06-20T01:02:38.622Z,93.60
2019-06-20T01:05:09.842Z,93.60
2019-06-20T01:07:40.670Z,93.90
2019-06-20T01:10:12.303Z,94.00
2019-06-20T01:12:43.367Z,94.20
2019-06-20T01:15:14.913Z,94.10
2019-06-20T01:17:45.851Z,94.20
2019-06-20T01:20:16.948Z,94.20
2019-06-20T01:22:48.017Z,94.40
2019-06-20T01:25:31.417Z,94.30
2019-06-20T01:28:02.449Z,94.30
2019-06-20T01:30:33.381Z,94.50
2019-06-20T01:33:04.318Z,94.30
2019-06-20T01:35:35.458Z,94.30
2019-06-20T01:38:07.670Z,94.10
2019-06-20T01:40:39.590Z,94.20
2019-06-20T01:43:10.554Z,94.50
2019-06-20T01:45:41.416Z,94.60
2019-06-20T01:48:12.382Z,94.70
2019-06-20T01:50:43.558Z,94.70
2019-06-20T01:53:14.721Z,94.70
2019-06-20T01:55:45.492Z,94.70
2019-06-20T01:58:16.067Z,94.70
2019-06-20T02:00:48.678Z,94.70
2019-06-20T02:03:20.794Z,94.80
2019-06-20T02:05:51.827Z,94.80
2019-06-20T02:08:22.973Z,94.90
2019-06-20T02:10:53.959Z,95.00
2019-06-20T02:13:24.944Z,95.10
2019-06-20T02:15:55.865Z,95.40
2019-06-20T02:18:26.947Z,95.70
2019-06-20T02:20:59.180Z,95.80
2019-06-20T02:23:30.081Z,95.80
2019-06-20T02:26:01.173Z,96.00
2019-06-20T02:28:32.238Z,96.10
2019-06-20T02:31:03.335Z,96.20
2019-06-20T02:33:34.315Z,96.40
2019-06-20T02:36:05.451Z,96.60
2019-06-20T02:38:36.704Z,97.00
2019-06-20T02:41:07.863Z,97.20
2019-06-20T02:43:38.798Z,97.20
2019-06-20T02:46:09.706Z,96.90
2019-06-20T02:48:41.058Z,97.00
2019-06-20T02:51:12.466Z,97.00
2019-06-20T02:53:43.599Z,96.90
2019-06-20T02:56:14.730Z,96.90
2019-06-20T02:58:45.467Z,97.20
2019-06-20T03:01:16.421Z,97.20
2019-06-20T03:03:47.361Z,97.10
2019-06-20T03:06:18.356Z,97.00
2019-06-20T03:08:49.400Z,97.30
2019-06-20T03:11:20.394Z,97.50
2019-06-20T03:13:51.272Z,97.40
2019-06-20T03:16:22.534Z,97.50
2019-06-20T03:18:53.370Z,97.50
2019-06-20T03:21:24.328Z,97.50
2019-06-20T03:23:55.261Z,97.60
2019-06-20T03:26:26.602Z,97.60
2019-06-20T03:28:57.585Z,97.50
2019-06-20T03:31:28.448Z,97.70
2019-06-20T03:33:59.452Z,97.30
2019-06-20T03:36:30.215Z,97.50
2019-06-20T03:39:01.094Z,97.10
2019-06-20T03:41:34.391Z,97.00
2019-06-20T03:44:05.358Z,97.00
2019-06-20T03:46:36.437Z,97.00
2019-06-20T03:49:07.617Z,97.10
2019-06-20T03:51:38.406Z,97.20
2019-06-20T03:54:09.284Z,97.00
2019-06-20T03:56:40.317Z,97.00
2019-06-20T03:59:11.280Z,97.10
2019-06-20T04:01:42.270Z,96.90
2019-06-20T04:04:14.249Z,96.70
2019-06-20T04:06:45.505Z,96.70
2019-06-20T04:09:16.385Z,96.70
2019-06-20T04:11:47.527Z,96.80
2019-06-20T04:14:18.648Z,97.00
2019-06-20T04:16:49.792Z,97.00
2019-06-20T04:19:20.902Z,97.10
2019-06-20T04:21:51.941Z,96.90
2019-06-20T04:24:22.941Z,96.70
2019-06-20T04:26:53.863Z,96.70
2019-06-20T04:29:24.914Z,96.70
2019-06-20T04:31:55.894Z,96.80
2019-06-20T04:34:27.057Z,96.70
2019-06-20T04:36:58.024Z,96.60
2019-06-20T04:39:28.954Z,96.50
2019-06-20T04:42:00.093Z,96.30
2019-06-20T04:44:31.149Z,96.30
2019-06-20T04:47:09.976Z,95.90
2019-06-20T04:49:41.075Z,96.60
2019-06-20T04:52:12.225Z,96.60
2019-06-20T04:54:43.090Z,96.60
2019-06-20T04:57:14.034Z,96.80
2019-06-20T04:59:44.987Z,96.70
2019-06-20T05:02:17.829Z,96.40
2019-06-20T05:04:48.923Z,96.30
2019-06-20T05:07:20.723Z,95.80
2019-06-20T05:09:51.622Z,95.70
2019-06-20T05:12:22.330Z,95.70
2019-06-20T05:14:53.203Z,96.10
2019-06-20T05:17:24.175Z,95.70
2019-06-20T05:19:55.473Z,95.70
2019-06-20T05:22:26.425Z,95.50
2019-06-20T05:24:57.648Z,95.40
2019-06-20T05:27:28.648Z,95.20
2019-06-20T05:29:59.317Z,95.00
2019-06-20T05:32:29.915Z,94.80
2019-06-20T05:35:02.923Z,94.60
2019-06-20T05:37:33.339Z,94.60
2019-06-20T05:40:05.931Z,94.50
2019-06-20T05:42:37.186Z,94.50
2019-06-20T05:45:08.731Z,94.70
2019-06-20T05:47:40.044Z,94.70
2019-06-20T05:50:11.535Z,94.40
2019-06-20T05:52:42.525Z,94.30
2019-06-20T05:55:13.454Z,94.10
2019-06-20T05:57:44.895Z,93.90
2019-06-20T06:00:18.437Z,93.90
2019-06-20T06:02:49.875Z,94.00
2019-06-20T06:05:21.054Z,94.00
2019-06-20T06:07:52.240Z,94.00
2019-06-20T06:10:24.200Z,94.00
2019-06-20T06:12:55.306Z,93.60
2019-06-20T06:15:26.704Z,93.50
2019-06-20T06:17:58.143Z,93.30
2019-06-20T06:20:29.200Z,93.30
2019-06-20T06:23:00.199Z,93.20
2019-06-20T06:25:31.498Z,93.00
2019-06-20T06:28:02.629Z,92.50
2019-06-20T06:30:33.482Z,92.20
2019-06-20T06:33:04.450Z,92.20
2019-06-20T06:35:35.411Z,92.10
2019-06-20T06:38:06.509Z,91.80
2019-06-20T06:40:37.397Z,91.00
2019-06-20T06:43:08.593Z,90.60
2019-06-20T06:45:39.644Z,90.30
2019-06-20T06:48:10.677Z,90.10
2019-06-20T06:50:41.514Z,90.00
2019-06-20T06:53:12.445Z,90.30
2019-06-20T06:55:43.806Z,90.00
2019-06-20T06:58:14.707Z,90.00
2019-06-20T07:00:45.815Z,90.00
2019-06-20T07:03:16.853Z,90.00
2019-06-20T07:05:47.800Z,90.00
2019-06-20T07:08:18.900Z,89.90
2019-06-20T07:10:50.228Z,89.40
2019-06-20T07:13:21.403Z,89.70
2019-06-20T07:15:52.416Z,89.80
2019-06-20T07:18:23.528Z,88.90
2019-06-20T07:20:55.582Z,87.70
2019-06-20T07:23:26.395Z,87.90
2019-06-20T07:25:57.564Z,87.60
2019-06-20T07:28:28.481Z,87.60
2019-06-20T07:30:59.486Z,87.70
2019-06-20T07:33:30.628Z,87.20
2019-06-20T07:36:01.392Z,87.50
2019-06-20T07:38:32.366Z,86.70
2019-06-20T07:41:03.829Z,86.30
2019-06-20T07:43:35.060Z,85.80
2019-06-20T07:46:06.323Z,84.40
2019-06-20T07:48:37.435Z,84.40
2019-06-20T07:51:08.161Z,83.70
2019-06-20T07:53:39.369Z,84.10
2019-06-20T07:56:10.059Z,83.20
2019-06-20T07:58:40.761Z,82.90
2019-06-20T08:01:11.643Z,82.80
2019-06-20T08:03:45.182Z,82.30
2019-06-20T08:06:14.582Z,82.00
2019-06-20T08:08:45.310Z,81.90
2019-06-20T08:11:15.988Z,82.40
2019-06-20T08:13:46.673Z,82.10
2019-06-20T08:16:17.337Z,82.10
2019-06-20T08:18:48.060Z,82.30
2019-06-20T08:21:19.027Z,82.50
2019-06-20T08:23:49.807Z,81.40
2019-06-20T08:26:21.177Z,80.50
2019-06-20T08:29:07.329Z,78.70
2019-06-20T08:31:27.054Z,76.60
2019-06-20T08:33:59.264Z,74.80
2019-06-20T08:36:30.759Z,72.90
2019-06-20T08:39:02.625Z,72.10
2019-06-20T08:41:34.737Z,69.70
2019-06-20T08:44:06.403Z,69.20
2019-06-20T08:46:37.625Z,68.30
2019-06-20T08:49:08.870Z,67.60
2019-06-20T08:51:40.033Z,67.90
2019-06-20T08:54:11.218Z,67.00
2019-06-20T08:56:42.655Z,66.70
2019-06-20T08:59:23.996Z,65.80
2019-06-20T09:01:46.476Z,65.00
2019-06-20T09:04:17.563Z,63.70
2019-06-20T09:06:50.171Z,63.60
2019-06-20T09:09:21.392Z,63.50
2019-06-20T09:11:52.475Z,63.70
2019-06-20T09:14:25.065Z,64.40
2019-06-20T09:16:56.483Z,64.90
2019-06-20T09:19:27.705Z,66.20
2019-06-20T09:22:00.455Z,67.50
2019-06-20T09:24:31.780Z,67.00
2019-06-20T09:27:04.267Z,68.00
2019-06-20T09:29:41.665Z,68.50
2019-06-20T09:32:07.963Z,68.90
2019-06-20T09:34:39.290Z,68.80
2019-06-20T09:37:10.320Z,69.00
2019-06-20T09:39:41.418Z,69.60
2019-06-20T09:42:12.290Z,70.50
2019-06-20T09:44:43.538Z,71.00
2019-06-20T09:47:15.015Z,71.40
2019-06-20T09:49:49.246Z,71.90
2019-06-20T09:52:18.733Z,72.40
2019-06-20T09:54:50.177Z,72.90
2019-06-20T09:57:22.606Z,73.40
2019-06-20T10:00:05.831Z,73.80
2019-06-20T10:02:26.513Z,74.20
2019-06-20T10:04:57.514Z,74.80
2019-06-20T10:07:28.733Z,74.20
2019-06-20T10:09:59.761Z,73.90
2019-06-20T10:12:30.701Z,74.50
2019-06-20T10:15:01.746Z,74.60
2019-06-20T10:17:32.615Z,74.60
2019-06-20T10:20:03.689Z,74.30
2019-06-20T10:22:34.565Z,74.10
2019-06-20T10:25:05.746Z,74.30
2019-06-20T10:27:36.725Z,74.40
2019-06-20T10:30:14.216Z,74.70
2019-06-20T10:32:40.811Z,74.20
2019-06-20T10:35:13.239Z,74.30
2019-06-20T10:37:45.564Z,73.80
2019-06-20T10:40:17.526Z,73.90
2019-06-20T10:42:48.560Z,73.80
2019-06-20T10:45:20.603Z,71.20
2019-06-20T10:47:52.918Z,69.60
2019-06-20T10:50:24.079Z,67.80
2019-06-20T10:52:55.172Z,66.70
2019-06-20T10:55:26.354Z,66.10
2019-06-20T10:57:57.210Z,63.90
2019-06-20T11:00:31.681Z,64.20
2019-06-20T11:03:01.781Z,64.10
2019-06-20T11:05:32.942Z,64.60
2019-06-20T11:08:03.934Z,65.30
2019-06-20T11:10:35.502Z,62.50
2019-06-20T11:13:06.888Z,61.80
2019-06-20T11:15:39.250Z,61.80
2019-06-20T11:18:11.427Z,60.30
2019-06-20T11:20:42.771Z,59.80
2019-06-20T11:23:14.243Z,62.10
2019-06-20T11:25:46.537Z,61.60
2019-06-20T11:28:17.566Z,62.30
2019-06-20T11:30:59.643Z,62.60
2019-06-20T11:33:22.068Z,62.90
2019-06-20T11:35:52.922Z,64.40
2019-06-20T11:38:24.068Z,63.70
2019-06-20T11:40:55.462Z,63.20
2019-06-20T11:43:26.584Z,63.80
2019-06-20T11:45:57.492Z,64.70
2019-06-20T11:48:28.596Z,63.70
2019-06-20T11:50:59.495Z,62.80
2019-06-20T11:53:32.077Z,59.30
2019-06-20T11:56:03.275Z,59.80
2019-06-20T11:58:34.379Z,59.20
2019-06-20T12:01:05.373Z,57.90
2019-06-20T12:03:36.556Z,58.70
2019-06-20T12:06:07.555Z,58.90
2019-06-20T12:08:40.722Z,59.80
2019-06-20T12:11:12.108Z,58.60
2019-06-20T12:13:44.486Z,57.90
2019-06-20T12:16:15.644Z,58.50
2019-06-20T12:18:47.328Z,58.60
2019-06-20T12:21:18.530Z,59.40
2019-06-20T12:23:49.409Z,59.20
2019-06-20T12:26:21.617Z,59.70
2019-06-20T12:28:52.524Z,59.80
2019-06-20T12:31:23.626Z,59.50
2019-06-20T12:33:54.989Z,57.80
2019-06-20T12:36:26.246Z,57.30
2019-06-20T12:38:57.281Z,57.50
2019-06-20T12:41:28.373Z,57.20
2019-06-20T12:44:00.050Z,57.50
2019-06-20T12:46:31.146Z,58.40
2019-06-20T12:49:01.824Z,57.70
2019-06-20T12:51:32.681Z,57.20
2019-06-20T12:54:03.738Z,57.70
2019-06-20T12:56:34.951Z,57.90
2019-06-20T12:59:05.925Z,57.60
2019-06-20T13:01:40.556Z,58.00
2019-06-20T13:04:09.519Z,58.40
2019-06-20T13:06:40.568Z,59.00
2019-06-20T13:09:11.613Z,59.50
2019-06-20T13:11:42.746Z,59.20
2019-06-20T13:14:15.093Z,59.40
2019-06-20T13:16:46.284Z,59.80
2019-06-20T13:19:17.474Z,59.40
2019-06-20T13:21:48.692Z,59.70
2019-06-20T13:24:20.911Z,60.80
2019-06-20T13:26:51.921Z,60.80
2019-06-20T13:29:23.078Z,60.50
2019-06-20T13:32:03.615Z,59.70
2019-06-20T13:34:26.627Z,59.40
2019-06-20T13:36:57.772Z,59.40
2019-06-20T13:39:28.672Z,59.70
2019-06-20T13:42:00.054Z,59.60
2019-06-20T13:44:32.110Z,58.90
2019-06-20T13:47:03.288Z,59.30
2019-06-20T13:49:34.272Z,59.90
2019-06-20T13:52:05.726Z,60.10
2019-06-20T13:54:37.263Z,59.20
2019-06-20T13:57:08.599Z,59.10
2019-06-20T13:59:40.297Z,58.90
2019-06-20T14:02:12.435Z,59.10
2019-06-20T14:04:44.498Z,58.00
2019-06-20T14:07:15.722Z,57.30
2019-06-20T14:09:46.887Z,58.00
2019-06-20T14:12:17.869Z,58.70
2019-06-20T14:14:50.155Z,60.80
2019-06-20T14:17:21.591Z,61.90
2019-06-20T14:19:52.494Z,63.10
2019-06-20T14:22:23.449Z,64.50
2019-06-20T14:24:55.481Z,65.80
2019-06-20T14:27:26.405Z,67.20
2019-06-20T14:29:57.540Z,68.30
2019-06-20T14:32:28.461Z,69.20
2019-06-20T14:34:59.339Z,69.70
2019-06-20T14:37:30.667Z,69.50
2019-06-20T14:40:01.850Z,70.40
2019-06-20T14:42:32.886Z,71.00
2019-06-20T14:45:05.365Z,71.80
2019-06-20T14:47:36.425Z,73.10
2019-06-20T14:50:08.379Z,73.80
2019-06-20T14:52:39.872Z,74.70
2019-06-20T14:55:11.147Z,72.80
2019-06-20T14:57:44.607Z,74.20
2019-06-20T15:00:15.237Z,75.00
2019-06-20T15:02:47.654Z,75.80
2019-06-20T15:05:20.024Z,76.60
2019-06-20T15:07:53.345Z,77.30
2019-06-20T15:10:23.960Z,78.40
2019-06-20T15:12:55.856Z,78.80
2019-06-20T15:15:27.132Z,79.40
2019-06-20T15:17:58.389Z,79.40
2019-06-20T15:20:29.593Z,78.80
2019-06-20T15:23:00.754Z,79.00
2019-06-20T15:25:31.916Z,79.40
2019-06-20T15:28:02.815Z,80.40
2019-06-20T15:30:33.828Z,81.40
2019-06-20T15:33:09.921Z,82.20
2019-06-20T15:35:37.425Z,83.00
2019-06-20T15:38:08.258Z,83.00
2019-06-20T15:40:39.070Z,83.10
2019-06-20T15:43:10.099Z,83.40
2019-06-20T15:45:41.426Z,83.80
2019-06-20T15:48:12.645Z,84.10
2019-06-20T15:50:43.750Z,83.50
2019-06-20T15:53:14.724Z,82.50
2019-06-20T15:55:45.952Z,82.60
2019-06-20T15:58:18.043Z,82.20
2019-06-20T16:00:49.018Z,82.40
2019-06-20T16:03:20.475Z,82.20
2019-06-20T16:05:51.541Z,82.50
2019-06-20T16:08:22.509Z,82.10
2019-06-20T16:10:53.530Z,82.90
2019-06-20T16:13:24.656Z,83.10
2019-06-20T16:15:55.618Z,83.60
2019-06-20T16:18:26.695Z,83.20
2019-06-20T16:20:57.965Z,83.00
2019-06-20T16:23:28.886Z,82.20
2019-06-20T16:26:00.050Z,81.50
2019-06-20T16:28:31.128Z,81.30
2019-06-20T16:31:10.089Z,81.90
2019-06-20T16:33:35.671Z,81.60
2019-06-20T16:36:06.953Z,81.70
2019-06-20T16:38:38.369Z,82.00
2019-06-20T16:41:09.914Z,82.30
2019-06-20T16:43:40.909Z,82.30
2019-06-20T16:46:12.462Z,82.50
2019-06-20T16:48:44.323Z,83.10
2019-06-20T16:51:15.167Z,83.30
2019-06-20T16:53:46.147Z,84.00
2019-06-20T16:56:17.071Z,83.40
2019-06-20T16:58:48.155Z,82.20
2019-06-20T17:01:19.330Z,82.00
2019-06-20T17:03:50.409Z,81.70
2019-06-20T17:06:21.455Z,81.70
2019-06-20T17:08:52.637Z,81.60
2019-06-20T17:11:23.676Z,81.40
2019-06-20T17:13:54.454Z,81.40
2019-06-20T17:16:25.309Z,81.70
2019-06-20T17:18:56.576Z,81.40
2019-06-20T17:21:27.411Z,81.20
2019-06-20T17:23:58.411Z,81.40
2019-06-20T17:26:29.811Z,81.60
2019-06-20T17:29:00.811Z,81.70
2019-06-20T17:31:31.969Z,82.10
2019-06-20T17:34:03.128Z,82.30
2019-06-20T17:36:33.965Z,82.80
2019-06-20T17:39:06.634Z,82.90
2019-06-20T17:41:38.538Z,83.10
2019-06-20T17:44:10.674Z,83.40
2019-06-20T17:46:41.686Z,83.50
2019-06-20T17:49:13.032Z,83.60
2019-06-20T17:51:44.004Z,84.00
2019-06-20T17:54:15.014Z,84.20
2019-06-20T17:56:45.752Z,84.20
2019-06-20T17:59:16.881Z,84.20
2019-06-20T18:01:48.822Z,84.60
2019-06-20T18:04:20.184Z,84.80
2019-06-20T18:06:51.098Z,85.30
2019-06-20T18:09:23.375Z,85.40
2019-06-20T18:11:54.236Z,86.00
2019-06-20T18:14:25.462Z,86.40
2019-06-20T18:16:56.586Z,86.70
2019-06-20T18:19:27.652Z,86.90
2019-06-20T18:21:58.964Z,87.00
2019-06-20T18:24:30.123Z,87.20
2019-06-20T18:27:01.123Z,87.30
2019-06-20T18:29:32.055Z,87.30
2019-06-20T18:32:03.125Z,87.40
2019-06-20T18:34:34.014Z,87.60
2019-06-20T18:37:04.880Z,87.80
2019-06-20T18:39:35.935Z,88.30
2019-06-20T18:42:06.988Z,88.70
2019-06-20T18:44:37.978Z,89.20
2019-06-20T18:47:09.118Z,89.20
2019-06-20T18:49:40.185Z,89.50
2019-06-20T18:52:11.025Z,90.00
2019-06-20T18:54:41.722Z,90.10
2019-06-20T18:57:12.928Z,90.00
2019-06-20T18:59:43.763Z,90.10
2019-06-20T19:02:15.035Z,90.10
2019-06-20T19:04:50.597Z,90.10
2019-06-20T19:07:18.810Z,90.10
2019-06-20T19:09:50.649Z,90.20
2019-06-20T19:12:21.707Z,90.30
2019-06-20T19:14:52.927Z,90.30
2019-06-20T19:17:23.932Z,90.50
2019-06-20T19:19:55.043Z,90.70
2019-06-20T19:22:26.672Z,91.00
2019-06-20T19:24:57.707Z,91.00
2019-06-20T19:27:42.162Z,91.20
2019-06-20T19:30:01.478Z,91.30
2019-06-20T19:32:32.232Z,91.30
2019-06-20T19:35:03.469Z,91.30
2019-06-20T19:37:34.373Z,91.60
2019-06-20T19:40:06.725Z,91.60
2019-06-20T19:42:38.004Z,91.70
2019-06-20T19:45:10.129Z,91.70
2019-06-20T19:47:42.680Z,91.60
2019-06-20T19:50:14.246Z,91.70
2019-06-20T19:52:45.623Z,91.50
2019-06-20T19:55:16.675Z,91.30
2019-06-20T19:57:47.844Z,91.00
2019-06-20T20:00:20.168Z,91.20
2019-06-20T20:02:51.179Z,91.10
2019-06-20T20:05:22.643Z,90.90
2019-06-20T20:07:53.863Z,90.70
2019-06-20T20:10:36.799Z,90.70
2019-06-20T20:13:07.685Z,90.70
2019-06-20T20:15:38.776Z,90.80
2019-06-20T20:18:10.041Z,91.00
2019-06-20T20:20:40.900Z,91.10
2019-06-20T20:23:11.611Z,91.30
2019-06-20T20:25:42.451Z,91.70
2019-06-20T20:28:13.047Z,92.10
2019-06-20T20:30:43.790Z,92.60
2019-06-20T20:33:14.625Z,93.20
2019-06-20T20:35:45.522Z,93.70
2019-06-20T20:38:16.557Z,93.70
2019-06-20T20:40:47.616Z,93.80
2019-06-20T20:43:18.596Z,93.70
2019-06-20T20:45:49.394Z,93.60
2019-06-20T20:48:20.495Z,93.50
2019-06-20T20:50:51.634Z,93.80
2019-06-20T20:53:22.703Z,93.60
2019-06-20T20:55:54.054Z,93.40
2019-06-20T20:58:25.128Z,93.30
2019-06-20T21:01:21.326Z,93.30
2019-06-20T21:03:52.172Z,93.20
2019-06-20T21:06:24.803Z,93.30
2019-06-20T21:08:55.796Z,93.40
2019-06-20T21:11:27.114Z,93.50
2019-06-20T21:13:58.069Z,93.40
2019-06-20T21:16:29.427Z,93.60
2019-06-20T21:19:00.447Z,93.50
2019-06-20T21:21:31.551Z,93.90
2019-06-20T21:24:02.553Z,93.50
2019-06-20T21:26:48.316Z,93.60
2019-06-20T21:29:07.498Z,94.00
2019-06-20T21:31:38.556Z,93.80
2019-06-20T21:34:09.387Z,93.70
2019-06-20T21:36:40.327Z,93.80
2019-06-20T21:39:11.113Z,93.80
2019-06-20T21:41:42.146Z,93.70
2019-06-20T21:44:12.979Z,93.70
2019-06-20T21:46:44.052Z,93.90
2019-06-20T21:49:14.852Z,93.90
2019-06-20T21:51:45.842Z,94.20
2019-06-20T21:54:16.602Z,94.40
2019-06-20T21:56:47.473Z,94.50
2019-06-20T21:59:18.369Z,94.70
2019-06-20T22:01:49.379Z,94.70
2019-06-20T22:04:20.230Z,94.60
2019-06-20T22:06:51.405Z,94.60
2019-06-20T22:09:22.523Z,94.60
2019-06-20T22:11:53.685Z,94.50
2019-06-20T22:14:24.814Z,94.60
2019-06-20T22:16:55.949Z,94.70
2019-06-20T22:19:27.090Z,94.80
2019-06-20T22:21:58.126Z,95.00
2019-06-20T22:24:29.410Z,94.90
2019-06-20T22:27:00.343Z,95.10
2019-06-20T22:29:31.384Z,95.00
2019-06-20T22:32:03.339Z,94.90
2019-06-20T22:34:34.306Z,94.70
2019-06-20T22:37:05.382Z,94.50
2019-06-20T22:39:36.531Z,94.60
2019-06-20T22:42:09.533Z,94.40
2019-06-20T22:44:40.456Z,94.40
2019-06-20T22:47:11.397Z,94.00
2019-06-20T22:49:42.225Z,94.10
2019-06-20T22:52:13.027Z,94.20
2019-06-20T22:54:43.844Z,94.20
2019-06-20T22:57:15.601Z,94.10
2019-06-20T22:59:46.855Z,94.30
2019-06-20T23:02:17.954Z,94.10
2019-06-20T23:04:48.835Z,94.10
2019-06-20T23:07:19.949Z,94.30
2019-06-20T23:09:51.238Z,94.30
2019-06-20T23:12:22.240Z,94.30
2019-06-20T23:14:53.491Z,94.30
2019-06-20T23:17:24.332Z,94.50
2019-06-20T23:19:55.216Z,94.60
2019-06-20T23:22:27.222Z,94.70
2019-06-20T23:24:58.040Z,94.70
2019-06-20T23:27:28.979Z,94.70
2019-06-20T23:30:00.043Z,95.00
2019-06-20T23:32:31.200Z,95.10
2019-06-20T23:35:02.110Z,95.30
2019-06-20T23:37:33.164Z,95.40
2019-06-20T23:40:04.322Z,95.40
2019-06-20T23:42:35.147Z,95.40
2019-06-20T23:45:06.445Z,95.30
2019-06-20T23:47:37.534Z,95.30
2019-06-20T23:50:13.069Z,95.20
2019-06-20T23:52:45.759Z,95.30
2019-06-20T23:55:16.823Z,95.30
2019-06-20T23:57:47.750Z,95.40
